Time;durP1;ratioP1;P1;durP2;ratioP2;P2;SDS_P1;SDS_P2;PMS_P1;PMS_P2;Temp;Humidity;BMP_temperature;BMP_pressure;BME280_temperature;BME280_humidity;BME280_pressure;Samples;Min_cycle;Max_cycle;Signal;HPM_P1;HPM_P2
2024/03/16 00:02:02;;;;;;;6.53;2.00;;;;;;;11.85;100.00;100068.53;5112196;27;20035;-70
2024/03/16 00:04:32;;;;;;;3.92;2.03;;;;;;;11.80;100.00;100067.09;5104518;27;20045;-70
2024/03/16 00:07:00;;;;;;;8.25;2.33;;;;;;;11.78;100.00;100072.50;5108734;27;20051;-72
2024/03/16 00:09:28;;;;;;;4.63;2.53;;;;;;;11.82;100.00;100071.34;5097362;27;20042;-74
2024/03/16 00:11:56;;;;;;;4.93;2.13;;;;;;;11.80;100.00;100073.25;5126643;27;20427;-72
2024/03/16 00:14:24;;;;;;;5.35;2.22;;;;;;;11.81;100.00;100071.44;5093440;27;20043;-72
2024/03/16 00:16:52;;;;;;;5.38;2.10;;;;;;;11.83;100.00;100072.22;5114547;27;20104;-70
2024/03/16 00:19:20;;;;;;;7.57;2.30;;;;;;;11.84;100.00;100079.22;5113290;27;20051;-72
2024/03/16 00:21:47;;;;;;;4.20;1.85;;;;;;;11.82;100.00;100076.66;5115549;27;20043;-72
2024/03/16 00:24:15;;;;;;;7.22;2.22;;;;;;;11.74;100.00;100072.72;5089428;27;20065;-71
2024/03/16 00:26:43;;;;;;;6.10;2.22;;;;;;;11.78;100.00;100074.28;5114633;27;20096;-70
2024/03/16 00:29:11;;;;;;;4.10;1.80;;;;;;;11.79;100.00;100081.31;5111724;27;20585;-70
2024/03/16 00:31:39;;;;;;;3.97;1.75;;;;;;;11.80;100.00;100069.75;5094826;27;20044;-72
2024/03/16 00:34:08;;;;;;;3.83;1.55;;;;;;;11.71;100.00;100054.31;5105325;27;21095;-69
2024/03/16 00:36:36;;;;;;;3.60;1.80;;;;;;;11.86;100.00;100080.00;5098128;27;20126;-70
2024/03/16 00:39:14;;;;;;;4.63;1.55;;;;;;;11.86;100.00;100074.69;5109286;27;20461;-71
2024/03/16 00:41:43;;;;;;;5.03;1.98;;;;;;;11.85;100.00;100075.63;5108272;27;20069;-70
2024/03/16 00:44:11;;;;;;;2.90;1.90;;;;;;;11.79;100.00;100079.50;5100610;27;20053;-72
2024/03/16 00:46:39;;;;;;;3.33;1.50;;;;;;;11.75;100.00;100062.03;5112051;27;20070;-72
2024/03/16 00:49:07;;;;;;;2.33;1.48;;;;;;;11.76;100.00;100066.41;5091727;27;20043;-70
2024/03/16 00:51:35;;;;;;;5.65;1.70;;;;;;;11.77;100.00;100061.97;5113593;27;20582;-73
2024/03/16 00:54:03;;;;;;;4.50;1.80;;;;;;;11.73;100.00;100063.91;5104630;27;20066;-70
2024/03/16 00:56:31;;;;;;;3.90;1.73;;;;;;;11.70;100.00;100056.09;5095436;27;20089;-71
2024/03/16 00:58:59;;;;;;;6.10;1.73;;;;;;;11.72;100.00;100061.34;5094436;27;20050;-73
2024/03/16 01:01:29;;;;;;;3.58;1.35;;;;;;;11.69;100.00;100062.34;5107454;27;20062;-70
2024/03/16 01:03:57;;;;;;;3.05;1.73;;;;;;;11.71;100.00;100070.22;5105785;27;20082;-70
2024/03/16 01:06:25;;;;;;;3.47;1.70;;;;;;;11.68;100.00;100067.75;5123471;27;20523;-73
2024/03/16 01:08:53;;;;;;;4.00;1.80;;;;;;;11.62;100.00;100060.16;5110548;27;20039;-70
2024/03/16 01:11:23;;;;;;;5.03;1.60;;;;;;;11.72;100.00;100077.25;5113589;27;20117;-70
2024/03/16 01:13:51;;;;;;;;;;;;;;;11.69;100.00;100075.63;5108395;27;20049;-76
2024/03/16 01:16:19;;;;;;;3.63;1.90;;;;;;;11.53;100.00;100065.00;5109067;27;20539;-69
2024/03/16 01:18:48;;;;;;;4.85;1.98;;;;;;;11.68;100.00;100081.00;5093408;27;20104;-69
2024/03/16 01:21:16;;;;;;;2.88;1.58;;;;;;;11.66;100.00;100086.41;5090919;27;20195;-69
2024/03/16 01:23:44;;;;;;;5.82;1.98;;;;;;;11.70;100.00;100082.63;5076572;27;20050;-70
2024/03/16 01:26:11;;;;;;;3.47;1.70;;;;;;;11.64;100.00;100084.78;5089944;27;20058;-70
2024/03/16 01:28:39;;;;;;;3.80;1.73;;;;;;;11.60;100.00;100084.97;5091785;27;20785;-70
2024/03/16 01:31:08;;;;;;;5.20;1.90;;;;;;;11.63;100.00;100083.09;5096801;27;20034;-70
2024/03/16 01:33:40;;;;;;;2.92;1.65;;;;;;;11.65;100.00;100084.69;5112183;27;20040;-71
2024/03/16 01:36:08;;;;;;;5.13;1.92;;;;;;;11.65;100.00;100081.19;5101921;27;20047;-71
2024/03/16 01:38:37;;;;;;;3.53;1.70;;;;;;;11.66;100.00;100082.88;5092971;27;20466;-72
2024/03/16 01:41:07;;;;;;;3.72;1.50;;;;;;;11.63;100.00;100088.38;5094329;27;20047;-72
2024/03/16 01:43:34;;;;;;;4.68;2.00;;;;;;;11.64;100.00;100090.09;5104821;27;20100;-70
2024/03/16 01:46:03;;;;;;;4.03;1.55;;;;;;;11.58;100.00;100078.88;5105689;27;20104;-71
2024/03/16 01:48:32;;;;;;;6.45;1.98;;;;;;;11.66;100.00;100088.19;5095300;27;20047;-71
2024/03/16 01:51:00;;;;;;;6.95;1.92;;;;;;;11.62;100.00;100087.53;5109108;27;20051;-71
2024/03/16 01:53:30;;;;;;;4.82;1.90;;;;;;;11.62;100.00;100082.22;5105586;27;20035;-71
2024/03/16 01:55:57;;;;;;;4.88;1.83;;;;;;;11.56;100.00;100075.47;5104166;27;20101;-69
2024/03/16 01:58:24;;;;;;;5.28;2.10;;;;;;;11.54;100.00;100074.69;5109206;27;20046;-72
2024/03/16 02:00:53;;;;;;;4.78;2.13;;;;;;;11.58;100.00;100073.56;5111426;27;20043;-69
2024/03/16 02:03:21;;;;;;;6.07;1.85;;;;;;;11.58;100.00;100080.69;5094548;27;20130;-70
2024/03/16 02:05:49;;;;;;;2.80;1.90;;;;;;;11.57;100.00;100077.16;5092492;27;20043;-70
2024/03/16 02:08:17;;;;;;;5.30;1.90;;;;;;;11.57;100.00;100079.81;5111298;27;20047;-70
2024/03/16 02:10:46;;;;;;;4.55;1.90;;;;;;;11.51;100.00;100081.94;5089368;27;20132;-71
2024/03/16 02:13:16;;;;;;;3.78;2.10;;;;;;;11.47;100.00;100080.44;5103204;27;20043;-71
2024/03/16 02:15:45;;;;;;;4.03;2.10;;;;;;;11.45;100.00;100077.88;5118457;27;20062;-70
2024/03/16 02:18:13;;;;;;;4.20;2.28;;;;;;;11.46;100.00;100084.03;5069874;27;20142;-70
2024/03/16 02:20:41;;;;;;;4.40;1.75;;;;;;;11.46;100.00;100092.84;5109338;27;20047;-72
2024/03/16 02:23:10;;;;;;;6.40;2.40;;;;;;;11.47;100.00;100088.38;5092687;27;20075;-71
2024/03/16 02:25:38;;;;;;;7.43;2.10;;;;;;;11.46;100.00;100084.88;5088001;27;20108;-71
2024/03/16 02:28:08;;;;;;;3.85;2.10;;;;;;;11.41;100.00;100088.72;5093577;27;20716;-72
2024/03/16 02:30:37;;;;;;;;;;;;;;;11.35;100.00;100089.91;5108753;27;20035;-70
2024/03/16 02:33:07;;;;;;;4.82;2.05;;;;;;;11.30;100.00;100080.50;5125093;27;19964;-70
2024/03/16 02:35:35;;;;;;;4.82;2.05;;;;;;;11.33;100.00;100094.44;5090180;27;20566;-72
2024/03/16 02:38:03;;;;;;;4.47;2.28;;;;;;;11.31;100.00;100098.97;5109730;27;20071;-72
2024/03/16 02:40:31;;;;;;;5.88;2.25;;;;;;;11.27;100.00;100092.13;5108344;27;20475;-71
2024/03/16 02:42:59;;;;;;;4.85;2.35;;;;;;;11.17;100.00;100080.31;5108120;27;20042;-77
2024/03/16 02:45:28;;;;;;;4.57;2.08;;;;;;;11.23;100.00;100099.38;5087807;27;20096;-70
2024/03/16 02:47:56;;;;;;;1.77;1.67;;;;;;;11.18;100.00;100097.91;5110523;27;20069;-75
2024/03/16 02:50:24;;;;;;;3.58;1.88;;;;;;;11.12;100.00;100098.25;5108532;27;20031;-70
2024/03/16 02:52:53;;;;;;;5.40;1.92;;;;;;;11.18;100.00;100097.91;5104745;27;20047;-71
2024/03/16 02:55:21;;;;;;;5.13;2.10;;;;;;;11.17;100.00;100101.53;5104467;27;20063;-71
2024/03/16 02:57:49;;;;;;;4.38;2.00;;;;;;;11.17;100.00;100112.13;5112781;27;20111;-72
2024/03/16 03:00:18;;;;;;;3.88;1.83;;;;;;;11.17;100.00;100112.97;5108096;27;20078;-72
2024/03/16 03:02:46;;;;;;;4.93;2.00;;;;;;;11.17;100.00;100105.03;5105788;27;20039;-71
2024/03/16 03:05:19;;;;;;;5.05;2.10;;;;;;;11.09;100.00;100093.13;5102913;27;20735;-70
2024/03/16 03:07:49;;;;;;;2.85;1.92;;;;;;;11.21;100.00;100103.91;5096770;27;20050;-70
2024/03/16 03:10:21;;;;;;;3.40;1.73;;;;;;;11.27;100.00;100101.88;5104990;27;20039;-70
2024/03/16 03:12:50;;;;;;;5.97;1.92;;;;;;;11.28;100.00;100104.44;5085325;28;20497;-72
2024/03/16 03:15:19;;;;;;;5.82;2.00;;;;;;;11.27;100.00;100105.38;5095994;28;20098;-70
2024/03/16 03:17:48;;;;;;;3.42;1.73;;;;;;;11.33;100.00;100101.56;5113821;27;20915;-72
2024/03/16 03:20:20;;;;;;;3.20;1.80;;;;;;;11.34;100.00;100104.09;5120297;27;20110;-73
2024/03/16 03:22:48;;;;;;;3.78;1.92;;;;;;;11.33;100.00;100102.41;5098044;27;20042;-69
2024/03/16 03:25:15;;;;;;;4.90;1.88;;;;;;;11.33;100.00;100113.00;5102236;28;20785;-74
2024/03/16 03:27:43;;;;;;;3.22;1.95;;;;;;;11.34;100.00;100106.75;5092529;28;20517;-70
2024/03/16 03:30:12;;;;;;;3.55;1.92;;;;;;;11.33;100.00;100105.06;5081023;28;20039;-72
2024/03/16 03:32:41;;;;;;;3.40;1.80;;;;;;;11.28;100.00;100112.41;5103211;27;20047;-71
2024/03/16 03:35:09;;;;;;;3.97;1.80;;;;;;;11.26;100.00;100098.38;5091673;27;20686;-71
2024/03/16 03:37:37;;;;;;;3.88;1.90;;;;;;;11.20;100.00;100107.50;5088405;27;20043;-72
2024/03/16 03:40:05;;;;;;;3.97;1.90;;;;;;;11.14;100.00;100107.84;5113631;28;20040;-76
2024/03/16 03:42:34;;;;;;;4.40;2.38;;;;;;;11.07;100.00;100117.03;5079027;27;20513;-69
2024/03/16 03:45:14;;;;;;;2.28;1.73;;;;;;;11.04;100.00;100119.00;5098001;27;20043;-70
2024/03/16 03:48:00;;;;;;;7.05;2.47;;;;;;;11.03;100.00;100120.78;5110046;28;20043;-71
2024/03/16 03:50:31;;;;;;;3.05;2.42;;;;;;;11.03;100.00;100125.22;5106190;28;20099;-71
2024/03/16 03:53:02;;;;;;;4.95;2.42;;;;;;;11.02;100.00;100137.63;5092408;27;20047;-76
2024/03/16 03:55:29;;;;;;;5.18;2.85;;;;;;;11.03;100.00;100130.53;5101285;27;20076;-70
2024/03/16 03:57:57;;;;;;;6.00;2.88;;;;;;;10.98;100.00;100128.16;5111927;28;20071;-70
2024/03/16 04:00:25;;;;;;;4.78;2.35;;;;;;;10.98;100.00;100140.53;5110846;28;22010;-71
2024/03/16 04:02:53;;;;;;;7.22;2.90;;;;;;;10.96;100.00;100142.41;5108957;27;20031;-70
2024/03/16 04:05:21;;;;;;;5.95;2.58;;;;;;;10.96;100.00;100139.75;5090002;28;20051;-71
2024/03/16 04:07:49;;;;;;;4.30;2.47;;;;;;;10.93;100.00;100140.78;5104622;28;20845;-70
2024/03/16 04:10:18;;;;;;;6.72;2.90;;;;;;;10.94;100.00;100147.78;5079317;27;20051;-72
2024/03/16 04:12:46;;;;;;;4.32;2.40;;;;;;;10.73;100.00;100112.66;5086413;27;20417;-70
2024/03/16 04:15:14;;;;;;;5.80;2.60;;;;;;;10.90;100.00;100156.81;5089218;27;20047;-70
2024/03/16 04:17:42;;;;;;;5.20;2.35;;;;;;;10.66;100.00;100116.59;5113783;27;20055;-71
2024/03/16 04:20:12;;;;;;;5.35;2.40;;;;;;;10.88;100.00;100159.53;5094400;28;20043;-71
2024/03/16 04:22:40;;;;;;;4.13;2.47;;;;;;;10.87;100.00;100163.13;5090044;27;20523;-72
2024/03/16 04:25:11;;;;;;;5.28;2.40;;;;;;;10.83;100.00;100160.75;5104983;28;21535;-72
2024/03/16 04:27:40;;;;;;;5.55;2.80;;;;;;;10.81;100.00;100159.97;5090480;28;20039;-71
2024/03/16 04:30:08;;;;;;;5.43;2.72;;;;;;;10.73;100.00;100157.69;5108620;28;20138;-71
2024/03/16 04:32:36;;;;;;;4.97;2.53;;;;;;;10.74;100.00;100148.81;5112116;27;20056;-70
2024/03/16 04:35:05;;;;;;;5.80;2.50;;;;;;;10.82;100.00;100165.19;5068695;27;20058;-71
2024/03/16 04:37:33;;;;;;;3.65;2.38;;;;;;;10.75;100.00;100153.16;5118058;27;20043;-72
2024/03/16 04:40:03;;;;;;;6.45;2.65;;;;;;;10.84;100.00;100162.44;5094507;27;20043;-71
2024/03/16 04:42:31;;;;;;;3.85;2.70;;;;;;;10.75;100.00;100169.06;5099543;27;20045;-73
2024/03/16 04:44:59;;;;;;;6.68;2.83;;;;;;;10.69;100.00;100161.44;5085491;27;20057;-71
2024/03/16 04:47:27;;;;;;;4.07;2.42;;;;;;;10.58;100.00;100150.53;5094745;27;20596;-71
2024/03/16 04:49:55;;;;;;;6.00;2.90;;;;;;;10.67;100.00;100162.47;5110417;27;20036;-70
2024/03/16 04:52:23;;;;;;;5.07;2.80;;;;;;;10.69;100.00;100164.09;5114347;27;20042;-70
2024/03/16 04:54:51;;;;;;;5.25;2.78;;;;;;;10.67;100.00;100160.66;5091545;27;20120;-70
2024/03/16 04:57:20;;;;;;;5.05;2.83;;;;;;;10.69;100.00;100155.28;5108154;27;20047;-71
2024/03/16 04:59:47;;;;;;;5.10;2.58;;;;;;;10.72;100.00;100157.75;5111622;27;20554;-72
2024/03/16 05:02:15;;;;;;;4.22;2.30;;;;;;;10.70;100.00;100165.81;5094077;27;20039;-70
2024/03/16 05:04:43;;;;;;;6.57;2.67;;;;;;;10.64;100.00;100166.13;5105163;27;20046;-71
2024/03/16 05:07:11;;;;;;;3.63;2.25;;;;;;;10.60;100.00;100159.25;5085570;27;20035;-70
2024/03/16 05:09:39;;;;;;;3.78;2.42;;;;;;;10.53;100.00;100141.97;5113496;27;20100;-69
2024/03/16 05:12:07;;;;;;;3.97;2.30;;;;;;;10.56;100.00;100155.03;5114237;27;20827;-70
2024/03/16 05:14:35;;;;;;;2.90;2.03;;;;;;;10.56;100.00;100155.03;5114334;27;20841;-72
2024/03/16 05:17:03;;;;;;;4.80;2.22;;;;;;;10.59;100.00;100157.53;5106413;27;20992;-71
2024/03/16 05:19:31;;;;;;;6.10;3.15;;;;;;;10.60;100.00;100169.84;5096007;27;20074;-70
2024/03/16 05:21:59;;;;;;;3.08;1.98;;;;;;;10.55;100.00;100167.41;5108831;27;20136;-71
2024/03/16 05:24:29;;;;;;;3.90;2.25;;;;;;;10.57;100.00;100170.00;5074558;27;20031;-72
2024/03/16 05:26:57;;;;;;;4.50;2.22;;;;;;;10.58;100.00;100165.56;5105191;27;20046;-70
2024/03/16 05:29:26;;;;;;;5.65;2.28;;;;;;;10.58;100.00;100177.00;5102454;27;20144;-73
2024/03/16 05:31:58;;;;;;;4.05;2.40;;;;;;;10.52;100.00;100180.84;5096312;27;20031;-70
2024/03/16 05:34:26;;;;;;;7.43;2.50;;;;;;;10.43;100.00;100185.72;5097269;27;20073;-76
2024/03/16 05:36:54;;;;;;;4.40;2.22;;;;;;;10.36;100.00;100194.91;5114583;27;20046;-71
2024/03/16 05:39:22;;;;;;;3.60;2.30;;;;;;;10.33;100.00;100203.84;5097358;27;20073;-72
2024/03/16 05:41:50;;;;;;;4.10;2.60;;;;;;;10.34;100.00;100202.06;5093290;27;20047;-71
2024/03/16 05:44:17;;;;;;;5.57;2.72;;;;;;;10.35;100.00;100199.34;5110457;27;20047;-70
2024/03/16 05:46:46;;;;;;;5.72;2.53;;;;;;;10.39;100.00;100198.22;5103308;27;20035;-70
2024/03/16 05:49:14;;;;;;;3.40;2.65;;;;;;;10.42;100.00;100202.53;5110510;27;20108;-70
2024/03/16 05:51:43;;;;;;;5.40;2.60;;;;;;;10.44;100.00;100192.72;5107728;27;20046;-72
2024/03/16 05:54:10;;;;;;;4.03;2.63;;;;;;;10.49;100.00;100191.56;5090134;27;20043;-70
2024/03/16 05:56:39;;;;;;;3.97;3.00;;;;;;;10.48;100.00;100202.22;5088215;27;20035;-72
2024/03/16 05:59:08;;;;;;;5.25;3.08;;;;;;;10.40;100.00;100188.50;5108624;27;20047;-72
2024/03/16 06:01:37;;;;;;;4.72;3.10;;;;;;;10.39;100.00;100205.34;5104321;27;20565;-69
2024/03/16 06:04:05;;;;;;;5.38;2.70;;;;;;;10.40;100.00;100207.88;5103280;27;20135;-70
2024/03/16 06:06:33;;;;;;;5.43;2.83;;;;;;;10.41;100.00;100208.75;5098342;27;20326;-70
2024/03/16 06:09:01;;;;;;;3.72;2.90;;;;;;;10.55;100.00;100216.88;5096821;27;20038;-70
2024/03/16 06:11:31;;;;;;;4.88;2.67;;;;;;;10.55;100.00;100225.66;5092263;27;20059;-70
2024/03/16 06:13:59;;;;;;;7.25;3.20;;;;;;;10.63;100.00;100227.94;5088177;28;20126;-70
2024/03/16 06:16:27;;;;;;;7.90;2.92;;;;;;;10.65;100.00;100227.88;5105257;27;20604;-71
2024/03/16 06:18:55;;;;;;;5.15;2.95;;;;;;;10.66;100.00;100237.53;5100205;27;20031;-72
2024/03/16 06:21:23;;;;;;;4.47;2.95;;;;;;;10.50;100.00;100203.03;5090697;27;20037;-70
2024/03/16 06:23:53;;;;;;;4.38;2.72;;;;;;;10.71;100.00;100239.00;5090948;27;20063;-70
2024/03/16 06:26:20;;;;;;;3.72;2.80;;;;;;;10.55;100.00;100204.47;5088103;27;20047;-70
2024/03/16 06:28:54;;;;;;;4.00;2.70;;;;;;;10.77;100.00;100254.59;5093791;27;20066;-70
2024/03/16 06:31:31;;;;;;;3.78;2.47;;;;;;;10.72;100.00;100247.81;5094028;27;20039;-71
2024/03/16 06:34:01;;;;;;;3.88;2.60;;;;;;;10.65;100.00;100252.56;5110284;27;20043;-70
2024/03/16 06:36:29;;;;;;;6.55;3.10;;;;;;;10.70;100.00;100258.50;5107913;27;20126;-76
2024/03/16 06:38:58;;;;;;;6.60;2.40;;;;;;;10.76;100.00;100266.13;5103314;27;20111;-70
2024/03/16 06:41:26;;;;;;;4.97;2.60;;;;;;;10.84;100.00;100269.25;5107608;27;20043;-69
2024/03/16 06:43:54;;;;;;;4.72;2.50;;;;;;;10.88;100.00;100265.50;5093770;27;20091;-72
2024/03/16 06:46:23;;;;;;;3.05;2.22;;;;;;;10.97;100.00;100258.03;5104692;27;20043;-69
2024/03/16 06:48:51;;;;;;;4.95;2.75;;;;;;;11.08;100.00;100258.34;5107640;27;20123;-71
2024/03/16 06:51:20;;;;;;;4.63;2.38;;;;;;;11.15;100.00;100265.06;5113109;27;20512;-70
2024/03/16 06:53:49;;;;;;;7.53;2.72;;;;;;;11.24;100.00;100268.09;5107562;28;20043;-70
2024/03/16 06:56:19;;;;;;;3.83;2.60;;;;;;;11.32;100.00;100270.34;5089320;27;20039;-71
2024/03/16 06:58:47;;;;;;;4.30;2.67;;;;;;;11.40;100.00;100277.88;5087885;27;20043;-71
2024/03/16 07:01:15;;;;;;;6.35;2.70;;;;;;;11.44;100.00;100280.31;5078042;27;20050;-72
2024/03/16 07:03:43;;;;;;;4.45;2.72;;;;;;;11.47;100.00;100277.50;5095495;27;20130;-72
2024/03/16 07:06:11;;;;;;;5.50;3.05;;;;;;;11.50;100.00;100287.06;5093636;27;20066;-70
2024/03/16 07:08:39;;;;;;;5.18;2.95;;;;;;;11.46;100.00;100288.19;5087725;27;20657;-73
2024/03/16 07:11:07;;;;;;;8.65;2.80;;;;;;;11.48;100.00;100294.28;5109513;27;20047;-73
2024/03/16 07:13:36;;;;;;;3.03;2.28;;;;;;;11.47;100.00;100305.81;5094929;28;20031;-70
2024/03/16 07:16:05;;;;;;;7.30;3.55;;;;;;;11.37;100.00;100308.06;5059054;28;20097;-73
2024/03/16 07:18:33;;;;;;;4.57;2.90;;;;;;;11.37;100.00;100308.06;5087079;28;20047;-73
2024/03/16 07:21:01;;;;;;;6.28;3.08;;;;;;;11.33;100.00;100298.56;5071201;28;20462;-72
2024/03/16 07:23:29;;;;;;;3.17;2.40;;;;;;;11.38;100.00;100315.09;5054720;28;20077;-72
2024/03/16 07:25:58;;;;;;;4.68;2.92;;;;;;;11.41;100.00;100316.72;5075478;28;20157;-70
2024/03/16 07:28:26;;;;;;;4.88;2.42;;;;;;;11.46;100.00;100322.66;5070790;28;20035;-70
2024/03/16 07:30:55;;;;;;;4.10;2.80;;;;;;;11.40;100.00;100326.47;5077366;28;20444;-71
2024/03/16 07:33:24;;;;;;;4.50;2.80;;;;;;;11.35;100.00;100336.44;5083880;28;20067;-74
2024/03/16 07:35:52;;;;;;;2.95;2.45;;;;;;;11.29;100.00;100336.78;5088094;28;20040;-75
2024/03/16 07:38:20;;;;;;;3.90;2.70;;;;;;;11.30;100.00;100338.50;5069448;28;20047;-71
2024/03/16 07:40:48;;;;;;;4.47;3.03;;;;;;;11.24;100.00;100330.84;5094068;28;20044;-73
2024/03/16 07:43:16;;;;;;;4.55;3.10;;;;;;;11.27;100.00;100325.38;5059209;28;20597;-70
2024/03/16 07:45:44;;;;;;;5.45;2.90;;;;;;;11.44;100.00;100338.66;5076293;28;20048;-71
2024/03/16 07:48:12;;;;;;;3.90;2.67;;;;;;;11.32;100.00;100320.72;5093021;28;20085;-70
2024/03/16 07:50:40;;;;;;;3.60;2.88;;;;;;;11.49;100.00;100347.19;5092030;28;20043;-71
2024/03/16 07:53:10;;;;;;;4.97;3.10;;;;;;;11.57;100.00;100349.47;5085458;28;20047;-70
2024/03/16 07:55:38;;;;;;;16.77;3.00;;;;;;;11.65;100.00;100344.59;5072818;28;20050;-72
2024/03/16 07:58:07;;;;;;;4.28;2.35;;;;;;;11.77;100.00;100351.13;5050414;28;20046;-72
2024/03/16 08:00:36;;;;;;;5.77;2.70;;;;;;;11.84;100.00;100355.16;5076929;28;20036;-71
2024/03/16 08:03:04;;;;;;;4.57;2.90;;;;;;;11.72;100.00;100342.50;5099775;28;20068;-70
2024/03/16 08:05:34;;;;;;;2.97;2.45;;;;;;;12.01;100.00;100356.91;5104180;28;20054;-73
2024/03/16 08:08:02;;;;;;;4.65;2.42;;;;;;;12.20;100.00;100353.19;5067532;28;20122;-69
2024/03/16 08:10:30;;;;;;;3.42;2.25;;;;;;;12.29;100.00;100354.47;5055602;28;20756;-71
2024/03/16 08:12:58;;;;;;;3.60;2.40;;;;;;;12.17;100.00;100365.78;5093549;28;20150;-71
2024/03/16 08:15:25;;;;;;;6.20;2.47;;;;;;;12.12;100.00;100366.00;5097274;27;20042;-70
2024/03/16 08:17:56;;;;;;;2.35;2.13;;;;;;;12.01;100.00;100355.13;5089308;27;20042;-75
2024/03/16 08:20:24;;;;;;;3.00;2.13;;;;;;;12.04;100.00;100385.94;5097054;27;20051;-70
2024/03/16 08:22:54;;;;;;;2.55;2.30;;;;;;;12.11;100.00;100376.75;5092196;27;20051;-74
2024/03/16 08:25:22;;;;;;;3.87;2.40;;;;;;;12.10;100.00;100369.72;5127277;27;20047;-69
2024/03/16 08:27:50;;;;;;;4.43;2.53;;;;;;;12.32;100.00;100380.00;5088174;27;20377;-69
2024/03/16 08:30:20;;;;;;;3.80;2.30;;;;;;;12.30;100.00;100386.25;5095697;27;20051;-70
2024/03/16 08:32:49;;;;;;;2.65;2.45;;;;;;;12.31;100.00;100392.44;5107596;27;20035;-71
2024/03/16 08:35:17;;;;;;;6.90;2.75;;;;;;;12.28;100.00;100380.16;5110214;27;20039;-71
2024/03/16 08:37:45;;;;;;;3.88;2.40;;;;;;;12.24;100.00;100373.34;5107588;27;20669;-71
2024/03/16 08:40:13;;;;;;;3.70;2.20;;;;;;;12.36;100.00;100390.38;5114029;27;20408;-72
2024/03/16 08:42:41;;;;;;;4.70;2.40;;;;;;;12.44;100.00;100382.00;5097870;27;20035;-71
2024/03/16 08:45:10;;;;;;;4.50;2.10;;;;;;;12.56;100.00;100386.66;5104251;27;20146;-73
2024/03/16 08:47:41;;;;;;;3.53;2.00;;;;;;;12.58;100.00;100390.94;5107239;27;20085;-70
2024/03/16 08:50:09;;;;;;;3.20;1.90;;;;;;;12.63;100.00;100374.72;5095269;27;20049;-71
2024/03/16 08:52:39;;;;;;;4.95;2.10;;;;;;;12.95;100.00;100388.88;5108625;27;20135;-70
2024/03/16 08:55:12;;;;;;;2.33;1.92;;;;;;;13.05;100.00;100402.50;5095455;27;20385;-71
2024/03/16 08:57:41;;;;;;;2.13;1.60;;;;;;;13.05;100.00;100389.22;5102529;27;20070;-73
2024/03/16 09:00:13;;;;;;;2.95;1.70;;;;;;;12.95;100.00;100397.69;5116674;27;20585;-76
2024/03/16 09:02:42;;;;;;;2.95;1.77;;;;;;;12.77;100.00;100404.03;5096794;27;20027;-70
2024/03/16 09:05:10;;;;;;;3.85;1.80;;;;;;;12.82;100.00;100406.44;5109887;27;20097;-71
2024/03/16 09:07:39;;;;;;;2.33;1.58;;;;;;;13.04;100.00;100395.47;5108531;27;20043;-71
2024/03/16 09:10:07;;;;;;;5.57;1.85;;;;;;;13.17;100.00;100405.34;5112378;27;20054;-70
2024/03/16 09:12:36;;;;;;;4.45;1.65;;;;;;;13.02;100.00;100381.41;5091529;28;20036;-72
2024/03/16 09:15:05;;;;;;;2.50;1.58;;;;;;;12.99;100.00;100370.00;5089810;27;20059;-70
2024/03/16 09:17:33;;;;;;;1.80;1.50;;;;;;;13.34;100.00;100409.69;5090220;27;20069;-71
2024/03/16 09:20:07;;;;;;;3.42;1.42;;;;;;;13.61;100.00;100409.88;5111466;27;20541;-71
2024/03/16 09:22:36;;;;;;;3.53;1.08;;;;;;;13.77;100.00;100412.47;5111469;27;20126;-72
2024/03/16 09:25:05;;;;;;;1.58;1.10;;;;;;;13.47;100.00;100364.59;5090934;27;20438;-70
2024/03/16 09:27:34;;;;;;;1.95;1.30;;;;;;;13.79;100.00;100415.91;5092740;27;20068;-70
2024/03/16 09:30:05;;;;;;;2.13;1.10;;;;;;;13.82;100.00;100416.59;5091262;27;20045;-70
2024/03/16 09:32:32;;;;;;;2.17;0.50;;;;;;;13.83;100.00;100414.78;5098565;27;20046;-70
2024/03/16 09:35:01;;;;;;;1.17;0.43;;;;;;;14.06;100.00;100424.88;5092708;27;20043;-73
2024/03/16 09:37:29;;;;;;;1.42;0.40;;;;;;;14.14;100.00;100427.94;5087896;27;20046;-73
2024/03/16 09:39:57;;;;;;;1.08;0.50;;;;;;;14.12;100.00;100434.31;5105352;27;20143;-70
2024/03/16 09:42:25;;;;;;;1.52;0.50;;;;;;;13.96;100.00;100421.94;5091639;27;20043;-72
2024/03/16 09:44:53;;;;;;;0.68;0.40;;;;;;;13.84;100.00;100436.00;5106144;27;20111;-72
2024/03/16 09:47:23;;;;;;;1.13;0.60;;;;;;;13.98;100.00;100429.84;5091277;27;20420;-71
2024/03/16 09:49:51;;;;;;;0.90;0.50;;;;;;;13.93;100.00;100443.41;5092539;27;20039;-70
2024/03/16 09:52:18;;;;;;;1.17;0.40;;;;;;;12.94;100.00;100400.44;5095051;27;20070;-70
2024/03/16 09:54:45;;;;;;;8.30;0.70;;;;;;;13.10;100.00;100454.44;5107213;27;20131;-71
2024/03/16 09:57:12;;;;;;;1.10;0.57;;;;;;;13.23;100.00;100452.84;5078833;27;20123;-75
2024/03/16 09:59:39;;;;;;;0.47;0.40;;;;;;;13.27;100.00;100459.69;5093772;27;20059;-71
2024/03/16 10:02:07;;;;;;;2.05;0.55;;;;;;;13.29;100.00;100463.13;5111181;27;20047;-71
2024/03/16 10:04:35;;;;;;;0.98;0.30;;;;;;;13.24;100.00;100459.88;5086871;27;20130;-74
2024/03/16 10:07:03;;;;;;;1.83;0.40;;;;;;;13.27;100.00;100464.16;5056550;27;20071;-74
2024/03/16 10:09:31;;;;;;;1.70;0.40;;;;;;;13.49;100.00;100466.47;5104707;27;20049;-71
2024/03/16 10:12:08;;;;;;;2.25;0.60;;;;;;;13.53;100.00;100465.34;5077848;27;20076;-70
2024/03/16 10:14:35;;;;;;;1.70;0.60;;;;;;;13.55;100.00;100468.75;5108806;27;20043;-73
2024/03/16 10:17:03;;;;;;;1.77;0.50;;;;;;;13.00;100.00;100487.81;5107872;27;20460;-69
2024/03/16 10:19:32;;;;;;;1.83;0.50;;;;;;;12.49;100.00;100486.19;5085887;27;20122;-69
2024/03/16 10:21:59;;;;;;;0.85;0.40;;;;;;;12.18;100.00;100500.22;5089720;27;20067;-71
2024/03/16 10:24:26;;;;;;;0.52;0.22;;;;;;;11.40;100.00;100427.22;5087664;27;20067;-67
2024/03/16 10:26:53;;;;;;;0.38;0.15;;;;;;;11.73;100.00;100516.66;5108461;27;20067;-71
2024/03/16 10:29:21;;;;;;;1.20;0.30;;;;;;;11.52;100.00;100526.53;5101266;27;20138;-69
2024/03/16 10:31:50;;;;;;;1.20;0.30;;;;;;;11.35;100.00;100522.03;5094828;27;20136;-69
2024/03/16 10:34:17;;;;;;;1.23;0.40;;;;;;;11.23;100.00;100526.13;5101728;27;20066;-69
2024/03/16 10:36:44;;;;;;;3.00;0.80;;;;;;;11.22;100.00;100531.50;5091201;27;20035;-68
2024/03/16 10:39:16;;;;;;;1.38;0.70;;;;;;;11.21;100.00;100543.03;5071116;27;20139;-68
2024/03/16 10:41:43;;;;;;;3.55;0.88;;;;;;;11.15;100.00;100551.28;5092639;27;20034;-71
2024/03/16 10:44:11;;;;;;;0.98;0.60;;;;;;;11.07;100.00;100546.34;5077933;27;20526;-70
2024/03/16 10:46:41;;;;;;;1.15;0.80;;;;;;;11.08;100.00;100552.50;5094726;27;20065;-73
2024/03/16 10:49:10;;;;;;;3.25;1.00;;;;;;;11.14;100.00;100553.09;5086735;27;20067;-71
2024/03/16 10:51:37;;;;;;;1.98;0.80;;;;;;;11.30;100.00;100561.19;5074149;27;20122;-70
2024/03/16 10:54:09;;;;;;;1.92;1.08;;;;;;;11.51;100.00;100556.63;5109277;27;20055;-70
2024/03/16 10:56:36;;;;;;;1.77;1.10;;;;;;;11.79;100.00;100557.06;5079303;27;20120;-70
2024/03/16 10:59:06;;;;;;;2.50;1.38;;;;;;;11.75;100.00;100571.38;5083740;27;20046;-70
2024/03/16 11:01:38;;;;;;;1.95;1.20;;;;;;;11.76;100.00;100578.41;5094049;27;20123;-70
2024/03/16 11:04:06;;;;;;;1.73;1.63;;;;;;;11.58;100.00;100592.53;5094772;27;20078;-71
2024/03/16 11:06:41;;;;;;;1.73;1.48;;;;;;;11.31;100.00;100581.47;5073251;27;20125;-70
2024/03/16 11:09:08;;;;;;;1.80;1.55;;;;;;;11.38;100.00;100584.66;5074497;28;20054;-71
2024/03/16 11:11:34;;;;;;;3.40;1.70;;;;;;;11.47;100.00;100598.38;5108292;27;20058;-71
2024/03/16 11:14:07;;;;;;;2.00;1.80;;;;;;;11.50;100.00;100597.34;5090174;27;20071;-71
2024/03/16 11:16:34;;;;;;;2.67;2.08;;;;;;;11.46;100.00;100595.78;5098912;27;20076;-69
2024/03/16 11:19:01;;;;;;;2.17;1.98;;;;;;;11.28;100.00;100562.19;5088188;27;20137;-80
2024/03/16 11:21:28;;;;;;;2.58;1.88;;;;;;;11.40;100.00;100604.88;5110887;27;20066;-71
2024/03/16 11:23:59;;;;;;;2.13;1.58;;;;;;;11.29;100.00;100598.34;5100990;28;20176;-71